createdAt,value
2018-01-11T00:01:06.305Z,100592.88
2018-01-11T00:03:32.296Z,100589.05
2018-01-11T00:05:58.257Z,100590.14
2018-01-11T00:08:24.234Z,100582.99
2018-01-11T00:10:50.196Z,100581.69
2018-01-11T00:13:16.203Z,100574.30
2018-01-11T00:15:42.209Z,100575.89
2018-01-11T00:18:08.191Z,100576.58
2018-01-11T00:20:34.159Z,100574.89
2018-01-11T00:23:00.132Z,100577.89
2018-01-11T00:30:34.285Z,100572.53
2018-01-11T00:33:00.250Z,100575.67
2018-01-11T00:35:26.288Z,100576.30
2018-01-11T00:37:52.281Z,100572.30
2018-01-11T00:40:18.395Z,100572.61
2018-01-11T00:42:44.443Z,100568.80
2018-01-11T00:45:10.435Z,100572.03
2018-01-11T00:47:37.099Z,100566.98
2018-01-11T00:50:03.054Z,100567.78
2018-01-11T00:52:29.024Z,100564.92
2018-01-11T00:54:54.988Z,100565.55
2018-01-11T00:57:20.945Z,100564.47
2018-01-11T00:59:46.926Z,100554.69
2018-01-11T01:02:12.885Z,100567.16
2018-01-11T01:04:38.855Z,100577.50
2018-01-11T01:07:04.825Z,100578.12
2018-01-11T01:09:30.790Z,100587.45
2018-01-11T01:11:56.752Z,100590.01
2018-01-11T01:14:22.763Z,100586.64
2018-01-11T01:16:48.710Z,100596.56
2018-01-11T01:19:14.696Z,100602.17
2018-01-11T01:21:40.716Z,100603.30
2018-01-11T01:24:06.765Z,100604.45
2018-01-11T01:26:32.735Z,100608.18
2018-01-11T01:28:58.707Z,100609.67
2018-01-11T01:31:24.726Z,100610.00
2018-01-11T01:33:50.684Z,100614.55
2018-01-11T01:36:16.650Z,100614.09
2018-01-11T01:38:42.613Z,100619.23
2018-01-11T01:41:08.568Z,100619.33
2018-01-11T01:43:34.531Z,100616.45
2018-01-11T01:46:00.532Z,100622.03
2018-01-11T01:48:26.495Z,100629.95
2018-01-11T01:50:52.535Z,100628.39
2018-01-11T01:53:18.517Z,100634.90
2018-01-11T01:55:44.510Z,100635.94
2018-01-11T01:58:10.506Z,100641.09
2018-01-11T02:00:36.467Z,100636.34
2018-01-11T02:03:02.444Z,100633.81
2018-01-11T02:05:28.429Z,100638.13
2018-01-11T02:07:54.421Z,100638.37
2018-01-11T02:10:20.381Z,100640.45
2018-01-11T02:12:46.345Z,100645.78
2018-01-11T02:15:12.315Z,100646.05
2018-01-11T02:17:38.288Z,100638.77
2018-01-11T02:20:04.379Z,100642.91
2018-01-11T02:22:30.339Z,100640.50
2018-01-11T02:24:56.346Z,100638.35
2018-01-11T02:27:22.387Z,100635.77
2018-01-11T02:29:48.377Z,100636.36
2018-01-11T02:32:14.354Z,100640.45
2018-01-11T02:34:40.353Z,100640.27
2018-01-11T02:37:06.373Z,100640.67
2018-01-11T02:39:32.366Z,100643.91
2018-01-11T02:41:58.323Z,100646.60
2018-01-11T02:44:24.748Z,100655.05
2018-01-11T02:46:50.712Z,100650.49
2018-01-11T02:49:16.676Z,100660.41
2018-01-11T02:51:42.651Z,100655.77
2018-01-11T02:54:08.636Z,100655.47
2018-01-11T02:56:34.616Z,100657.20
2018-01-11T02:59:00.589Z,100659.75
2018-01-11T03:01:26.584Z,100653.56
2018-01-11T03:03:52.614Z,100654.97
2018-01-11T03:06:18.580Z,100656.19
2018-01-11T03:08:44.568Z,100660.47
2018-01-11T03:11:10.523Z,100658.20
2018-01-11T03:13:36.489Z,100656.02
2018-01-11T03:16:02.462Z,100657.23
2018-01-11T03:18:28.413Z,100662.97
2018-01-11T03:20:54.395Z,100659.78
2018-01-11T03:23:20.367Z,100661.60
2018-01-11T03:25:46.343Z,100658.47
2018-01-11T03:28:12.338Z,100664.33
2018-01-11T03:30:38.327Z,100661.16
2018-01-11T03:33:04.335Z,100672.33
2018-01-11T03:35:30.334Z,100672.25
2018-01-11T03:37:56.360Z,100679.12
2018-01-11T03:40:22.318Z,100677.61
2018-01-11T03:42:48.314Z,100679.56
2018-01-11T03:45:14.266Z,100679.39
2018-01-11T03:47:40.274Z,100679.45
2018-01-11T03:50:06.248Z,100680.85
2018-01-11T03:52:32.218Z,100677.23
2018-01-11T03:54:58.174Z,100677.11
2018-01-11T03:57:24.133Z,100684.31
2018-01-11T03:59:50.132Z,100678.48
2018-01-11T04:02:16.164Z,100679.45
2018-01-11T04:04:42.144Z,100677.73
2018-01-11T04:07:08.139Z,100677.41
2018-01-11T04:09:34.137Z,100672.41
2018-01-11T04:12:00.088Z,100676.06
2018-01-11T04:14:26.066Z,100681.57
2018-01-11T04:16:52.065Z,100679.61
2018-01-11T04:19:18.042Z,100687.27
2018-01-11T04:21:44.029Z,100692.09
2018-01-11T04:24:09.999Z,100689.59
2018-01-11T04:26:36.020Z,100689.91
2018-01-11T04:29:02.000Z,100692.14
2018-01-11T04:31:27.993Z,100690.91
2018-01-11T04:33:53.947Z,100696.06
2018-01-11T04:36:19.902Z,100696.89
2018-01-11T04:38:45.871Z,100696.11
2018-01-11T04:41:11.821Z,100699.62
2018-01-11T04:43:37.813Z,100704.77
2018-01-11T04:46:03.796Z,100702.35
2018-01-11T04:48:29.788Z,100704.81
2018-01-11T04:50:55.788Z,100709.14
2018-01-11T04:53:21.795Z,100708.27
2018-01-11T04:55:47.851Z,100713.73
2018-01-11T04:58:13.821Z,100714.11
2018-01-11T05:00:39.879Z,100720.40
2018-01-11T05:03:05.833Z,100725.28
2018-01-11T05:05:31.814Z,100723.96
2018-01-11T05:07:57.785Z,100728.61
2018-01-11T05:10:23.748Z,100736.59
2018-01-11T05:12:49.703Z,100740.58
2018-01-11T05:15:15.654Z,100737.80
2018-01-11T05:17:41.636Z,100744.63
2018-01-11T05:20:07.634Z,100744.41
2018-01-11T05:22:33.564Z,100749.65
2018-01-11T05:24:59.572Z,100748.33
2018-01-11T05:27:25.538Z,100752.94
2018-01-11T05:29:51.501Z,100755.98
2018-01-11T05:32:17.497Z,100760.27
2018-01-11T05:34:43.448Z,100760.64
2018-01-11T05:37:09.441Z,100761.60
2018-01-11T05:39:35.438Z,100766.03
2018-01-11T05:42:02.212Z,100772.66
2018-01-11T05:44:28.177Z,100766.59
2018-01-11T05:46:54.217Z,100770.71
2018-01-11T05:49:20.168Z,100769.81
2018-01-11T05:51:46.141Z,100777.23
2018-01-11T05:54:12.135Z,100782.66
2018-01-11T05:56:38.105Z,100787.86
2018-01-11T05:59:04.094Z,100788.59
2018-01-11T06:01:33.597Z,100786.61
2018-01-11T06:03:59.605Z,100790.63
2018-01-11T06:06:25.579Z,100789.30
2018-01-11T06:08:51.576Z,100798.97
2018-01-11T06:11:17.675Z,100797.88
2018-01-11T06:13:43.649Z,100796.09
2018-01-11T06:16:09.657Z,100803.13
2018-01-11T06:18:35.657Z,100803.26
2018-01-11T06:21:01.641Z,100809.59
2018-01-11T06:23:27.656Z,100817.38
2018-01-11T06:25:54.181Z,100814.47
2018-01-11T06:28:20.137Z,100818.80
2018-01-11T06:30:46.112Z,100820.98
2018-01-11T06:33:12.088Z,100829.75
2018-01-11T06:35:38.067Z,100836.63
2018-01-11T06:38:04.064Z,100835.50
2018-01-11T06:40:30.159Z,100835.99
2018-01-11T06:42:56.122Z,100838.57
2018-01-11T06:45:23.156Z,100842.53
2018-01-11T06:47:49.133Z,100844.18
2018-01-11T06:50:15.112Z,100851.70
2018-01-11T06:52:41.070Z,100854.02
2018-01-11T06:55:07.108Z,100855.80
2018-01-11T06:57:33.123Z,100858.36
2018-01-11T06:59:59.151Z,100861.17
2018-01-11T07:02:25.156Z,100860.27
2018-01-11T07:04:51.145Z,100868.44
2018-01-11T07:07:17.121Z,100870.46
2018-01-11T07:09:43.087Z,100871.50
2018-01-11T07:12:09.047Z,100876.16
2018-01-11T07:14:35.024Z,100875.66
2018-01-11T07:17:01.016Z,100877.80
2018-01-11T07:19:26.984Z,100879.34
2018-01-11T07:21:52.955Z,100881.30
2018-01-11T07:24:18.974Z,100884.60
2018-01-11T07:26:44.968Z,100886.86
2018-01-11T07:29:10.969Z,100885.02
2018-01-11T07:31:36.933Z,100891.87
2018-01-11T07:34:02.915Z,100889.97
2018-01-11T07:36:28.874Z,100893.19
2018-01-11T07:38:54.876Z,100895.45
2018-01-11T07:41:20.866Z,100898.42
2018-01-11T07:43:46.835Z,100900.21
2018-01-11T07:46:12.840Z,100905.22
2018-01-11T07:48:38.811Z,100908.55
2018-01-11T07:51:04.875Z,100915.68
2018-01-11T07:53:30.818Z,100915.05
2018-01-11T07:55:56.812Z,100914.23
2018-01-11T07:58:22.818Z,100919.58
2018-01-11T08:00:48.774Z,100930.20
2018-01-11T08:03:14.733Z,100924.33
2018-01-11T08:05:40.732Z,100927.03
2018-01-11T08:08:06.703Z,100934.19
2018-01-11T08:10:32.654Z,100939.48
2018-01-11T08:12:58.623Z,100940.45
2018-01-11T08:15:24.646Z,100950.74
2018-01-11T08:17:50.634Z,100956.14
2018-01-11T08:20:16.640Z,100956.00
2018-01-11T08:22:42.594Z,100958.18
2018-01-11T08:25:08.619Z,100961.48
2018-01-11T08:27:34.598Z,100965.70
2018-01-11T08:30:00.594Z,100970.55
2018-01-11T08:32:26.591Z,100972.99
2018-01-11T08:34:52.547Z,100976.52
2018-01-11T08:37:18.644Z,100978.23
2018-01-11T08:39:44.630Z,100979.03
2018-01-11T08:42:10.618Z,100987.09
2018-01-11T08:44:36.614Z,100987.14
2018-01-11T08:47:02.558Z,100989.24
2018-01-11T08:49:28.542Z,100991.23
2018-01-11T08:51:54.563Z,100993.63
2018-01-11T08:54:20.549Z,100996.07
2018-01-11T08:56:46.503Z,101000.34
2018-01-11T08:59:12.504Z,101001.44
2018-01-11T09:01:38.492Z,101002.94
2018-01-11T09:04:04.472Z,101005.86
2018-01-11T09:06:30.431Z,101010.15
2018-01-11T09:08:56.454Z,101013.22
2018-01-11T09:11:22.439Z,101013.62
2018-01-11T09:13:48.472Z,101015.31
2018-01-11T09:16:14.468Z,101024.52
2018-01-11T09:18:40.434Z,101030.28
2018-01-11T09:21:06.409Z,101031.57
2018-01-11T09:23:32.363Z,101036.94
2018-01-11T09:25:58.349Z,101038.17
2018-01-11T09:28:24.342Z,101041.20
2018-01-11T09:30:50.319Z,101047.98
2018-01-11T09:33:16.293Z,101050.93
2018-01-11T09:35:42.314Z,101054.22
2018-01-11T09:38:08.288Z,101057.61
2018-01-11T09:40:34.304Z,101063.12
2018-01-11T09:43:00.291Z,101060.59
2018-01-11T09:45:26.246Z,101065.25
2018-01-11T09:47:52.233Z,101063.97
2018-01-11T09:50:18.181Z,101066.59
2018-01-11T09:52:44.175Z,101069.18
2018-01-11T09:55:10.128Z,101069.81
2018-01-11T09:57:36.110Z,101070.58
2018-01-11T10:00:02.086Z,101073.36
2018-01-11T10:02:28.058Z,101076.36
2018-01-11T10:04:54.034Z,101074.42
2018-01-11T10:07:19.993Z,101076.20
2018-01-11T10:09:46.061Z,101078.19
2018-01-11T10:12:12.035Z,101074.20
2018-01-11T10:14:38.046Z,101071.78
2018-01-11T10:17:04.057Z,101076.34
2018-01-11T10:19:30.035Z,101082.75
2018-01-11T10:21:56.023Z,101086.28
2018-01-11T10:24:22.010Z,101085.41
2018-01-11T10:26:48.005Z,101087.13
2018-01-11T10:29:13.975Z,101093.74
2018-01-11T10:31:39.932Z,101092.95
2018-01-11T10:34:05.891Z,101090.08
2018-01-11T10:36:31.987Z,101089.16
2018-01-11T10:38:57.966Z,101096.09
2018-01-11T10:41:24.027Z,101094.95
2018-01-11T10:43:50.004Z,101099.30
2018-01-11T10:46:16.000Z,101098.20
2018-01-11T10:48:42.014Z,101099.64
2018-01-11T10:51:08.009Z,101097.77
2018-01-11T10:53:34.028Z,101098.31
2018-01-11T10:56:00.019Z,101100.04
2018-01-11T10:58:25.974Z,101096.63
2018-01-11T11:00:51.967Z,101099.69
2018-01-11T11:03:18.000Z,101097.44
2018-01-11T11:05:44.000Z,101096.66
2018-01-11T11:08:10.028Z,101096.09
2018-01-11T11:10:35.979Z,101099.32
2018-01-11T11:13:01.949Z,101099.00
2018-01-11T11:15:27.984Z,101104.23
2018-01-11T11:17:54.017Z,101106.77
2018-01-11T11:20:23.661Z,101099.38
2018-01-11T11:22:49.666Z,101099.69
2018-01-11T11:25:15.642Z,101106.37
2018-01-11T11:27:41.616Z,101099.57
2018-01-11T11:30:07.592Z,101104.94
2018-01-11T11:32:33.570Z,101100.41
2018-01-11T11:34:59.556Z,101096.70
2018-01-11T11:37:25.518Z,101100.64
2018-01-11T11:39:51.511Z,101098.53
2018-01-11T11:42:17.470Z,101097.72
2018-01-11T11:44:43.436Z,101094.11
2018-01-11T11:47:09.427Z,101090.41
2018-01-11T11:49:35.427Z,101091.92
2018-01-11T11:52:01.429Z,101099.75
2018-01-11T11:54:27.398Z,101103.48
2018-01-11T11:56:53.364Z,101100.33
2018-01-11T11:59:19.310Z,101100.66
2018-01-11T12:01:45.268Z,101095.67
2018-01-11T12:04:11.251Z,101101.55
2018-01-11T12:06:37.251Z,101096.30
2018-01-11T12:09:03.246Z,101103.62
2018-01-11T12:11:29.214Z,101105.13
2018-01-11T12:13:55.166Z,101101.45
2018-01-11T12:16:21.141Z,101110.70
2018-01-11T12:18:47.106Z,101101.98
2018-01-11T12:21:13.151Z,101103.19
2018-01-11T12:23:39.147Z,101104.11
2018-01-11T12:26:05.150Z,101101.18
2018-01-11T12:28:31.099Z,101102.80
2018-01-11T12:30:57.087Z,101107.20
2018-01-11T12:33:23.051Z,101105.88
2018-01-11T12:35:49.027Z,101107.20
2018-01-11T12:38:15.010Z,101108.70
2018-01-11T12:40:40.986Z,101114.28
2018-01-11T12:43:06.966Z,101109.25
2018-01-11T12:45:33.013Z,101113.19
2018-01-11T12:47:58.990Z,101111.95
2018-01-11T12:50:24.961Z,101112.79
2018-01-11T12:52:50.878Z,101114.33
2018-01-11T12:55:16.852Z,101119.97
2018-01-11T12:57:42.900Z,101122.48
2018-01-11T13:00:08.891Z,101125.08
2018-01-11T13:02:34.853Z,101123.14
2018-01-11T13:05:00.877Z,101127.12
2018-01-11T13:07:27.946Z,101131.53
2018-01-11T13:09:53.940Z,101132.06
2018-01-11T13:12:19.951Z,101135.96
2018-01-11T13:14:45.975Z,101139.47
2018-01-11T13:17:11.978Z,101139.25
2018-01-11T13:19:38.020Z,101142.58
2018-01-11T13:22:03.993Z,101148.36
2018-01-11T13:24:29.976Z,101144.98
2018-01-11T13:26:55.964Z,101151.23
2018-01-11T13:29:21.993Z,101159.58
2018-01-11T13:31:48.042Z,101171.40
2018-01-11T13:34:14.087Z,101166.89
2018-01-11T13:36:40.042Z,101173.67
2018-01-11T13:39:06.088Z,101174.69
2018-01-11T13:44:03.286Z,101187.28
2018-01-11T13:46:29.242Z,101186.69
2018-01-11T13:48:55.214Z,101192.80
2018-01-11T13:51:21.209Z,101198.90
2018-01-11T13:53:47.191Z,101195.81
2018-01-11T13:56:13.235Z,101200.59
2018-01-11T13:58:40.469Z,101202.75
2018-01-11T14:01:06.522Z,101207.09
2018-01-11T14:03:32.560Z,101209.80
2018-01-11T14:05:58.579Z,101208.75
2018-01-11T14:08:24.641Z,101216.41
2018-01-11T14:10:50.598Z,101221.58
2018-01-11T14:13:16.578Z,101226.46
2018-01-11T14:15:43.615Z,101232.98
2018-01-11T14:18:09.673Z,101229.51
2018-01-11T14:20:35.646Z,101233.19
2018-01-11T14:23:01.644Z,101236.86
2018-01-11T14:30:30.853Z,101242.22
2018-01-11T14:32:56.855Z,101249.20
2018-01-11T14:37:54.523Z,101249.89
2018-01-11T14:40:20.533Z,101249.20
2018-01-11T14:42:46.547Z,101248.83
2018-01-11T14:45:18.053Z,101254.11
2018-01-11T14:47:45.152Z,101249.73
2018-01-11T14:50:11.153Z,101257.69
2018-01-11T14:52:37.112Z,101251.68
2018-01-11T15:05:09.276Z,101272.37
2018-01-11T15:07:35.271Z,101270.28
2018-01-11T15:10:01.263Z,101275.80
2018-01-11T15:12:32.648Z,101279.39
2018-01-11T15:14:58.675Z,101277.42
2018-01-11T15:17:24.800Z,101277.40
2018-01-11T15:19:50.855Z,101282.33
2018-01-11T15:22:16.859Z,101286.37
2018-01-11T15:24:42.839Z,101285.66
2018-01-11T15:27:12.591Z,101290.82
2018-01-11T15:34:41.734Z,101305.83
2018-01-11T15:37:07.717Z,101302.86
2018-01-11T15:39:33.686Z,101308.42
2018-01-11T15:42:00.650Z,101307.44
2018-01-11T15:44:28.725Z,101314.68
2018-01-11T15:46:54.740Z,101316.41
2018-01-11T15:49:21.847Z,101317.68
2018-01-11T15:51:47.823Z,101322.41
2018-01-11T15:56:45.914Z,101325.91
2018-01-11T15:59:11.900Z,101328.81
2018-01-11T16:01:37.918Z,101325.13
2018-01-11T16:04:03.908Z,101326.33
2018-01-11T16:06:29.918Z,101334.59
2018-01-11T16:08:55.928Z,101336.70
2018-01-11T16:11:21.963Z,101338.85
2018-01-11T16:13:47.997Z,101344.14
2018-01-11T16:16:13.980Z,101345.27
2018-01-11T16:18:39.955Z,101350.67
2018-01-11T16:21:05.945Z,101352.08
2018-01-11T16:23:31.961Z,101354.14
2018-01-11T16:25:58.156Z,101359.80
2018-01-11T16:28:24.155Z,101362.08
2018-01-11T16:30:50.259Z,101363.97
2018-01-11T16:33:16.321Z,101361.75
2018-01-11T16:35:42.290Z,101365.42
2018-01-11T16:38:08.299Z,101364.10
2018-01-11T16:40:34.500Z,101370.51
2018-01-11T16:43:00.463Z,101368.98
2018-01-11T16:45:26.600Z,101368.56
2018-01-11T16:47:52.592Z,101372.12
2018-01-11T16:50:18.595Z,101371.45
2018-01-11T16:52:44.590Z,101376.16
2018-01-11T16:55:10.624Z,101378.31
2018-01-11T16:57:36.591Z,101382.28
2018-01-11T17:00:02.576Z,101385.19
2018-01-11T17:02:28.559Z,101388.39
2018-01-11T17:04:54.544Z,101389.80
2018-01-11T17:07:20.506Z,101390.42
2018-01-11T17:09:46.500Z,101391.80
2018-01-11T17:12:12.496Z,101399.81
2018-01-11T17:17:10.041Z,101405.88
2018-01-11T17:19:36.039Z,101412.83
2018-01-11T17:22:02.160Z,101412.54
2018-01-11T17:24:28.162Z,101413.97
2018-01-11T17:26:54.368Z,101421.41
2018-01-11T17:29:20.391Z,101423.36
2018-01-11T17:31:46.415Z,101426.95
2018-01-11T17:34:12.429Z,101429.27
2018-01-11T17:36:38.510Z,101436.91
2018-01-11T17:39:05.669Z,101444.31
2018-01-11T17:41:31.728Z,101450.67
2018-01-11T17:44:03.184Z,101454.10
2018-01-11T17:46:33.738Z,101445.77
2018-01-11T17:48:59.705Z,101452.09
2018-01-11T17:51:25.760Z,101454.11
2018-01-11T17:53:51.751Z,101455.94
2018-01-11T17:56:17.736Z,101450.56
2018-01-11T17:58:43.688Z,101446.73
2018-01-11T18:03:40.908Z,101447.80
2018-01-11T18:06:06.874Z,101452.85
2018-01-11T18:13:36.313Z,101461.05
2018-01-11T18:16:02.472Z,101461.96
2018-01-11T18:18:28.695Z,101461.27
2018-01-11T18:20:56.750Z,101459.69
2018-01-11T18:23:22.739Z,101464.13
2018-01-11T18:25:48.739Z,101468.45
2018-01-11T18:28:14.749Z,101468.50
2018-01-11T18:30:40.712Z,101469.48
2018-01-11T18:33:06.722Z,101476.18
2018-01-11T18:35:32.718Z,101472.55
2018-01-11T18:38:00.102Z,101474.50
2018-01-11T18:40:26.368Z,101481.10
2018-01-11T18:42:52.366Z,101479.54
2018-01-11T18:45:18.373Z,101483.07
2018-01-11T18:47:44.359Z,101487.25
2018-01-11T18:50:10.452Z,101489.95
2018-01-11T18:52:36.430Z,101492.09
2018-01-11T18:55:02.530Z,101494.75
2018-01-11T18:57:28.555Z,101494.29
2018-01-11T18:59:54.553Z,101498.88
2018-01-11T19:02:20.649Z,101498.72
2018-01-11T19:04:46.603Z,101501.63
2018-01-11T19:07:12.638Z,101514.13
2018-01-11T19:09:38.616Z,101517.16
2018-01-11T19:12:04.605Z,101512.84
2018-01-11T19:14:30.587Z,101518.83
2018-01-11T19:16:58.641Z,101520.92
2018-01-11T19:19:24.703Z,101527.80
2018-01-11T19:21:50.748Z,101529.07
2018-01-11T19:24:16.720Z,101536.93
2018-01-11T19:26:42.703Z,101536.20
2018-01-11T19:29:08.757Z,101534.79
2018-01-11T19:31:34.732Z,101536.26
2018-01-11T19:34:00.706Z,101541.13
2018-01-11T19:36:26.711Z,101536.44
2018-01-11T19:38:52.730Z,101547.38
2018-01-11T19:41:18.728Z,101541.82
2018-01-11T19:43:44.727Z,101548.98
2018-01-11T19:46:10.733Z,101552.51
2018-01-11T19:48:36.729Z,101559.63
2018-01-11T19:51:02.721Z,101560.96
2018-01-11T19:53:28.736Z,101568.66
2018-01-11T19:55:54.707Z,101573.41
2018-01-11T19:58:20.750Z,101569.58
2018-01-11T20:00:46.740Z,101566.31
2018-01-11T20:03:12.714Z,101572.55
2018-01-11T20:05:38.721Z,101579.59
2018-01-11T20:08:04.762Z,101576.10
2018-01-11T20:10:30.728Z,101580.80
2018-01-11T20:12:56.808Z,101572.06
2018-01-11T20:15:24.784Z,101573.06
2018-01-11T20:17:51.849Z,101575.27
2018-01-11T20:20:21.711Z,101580.16
2018-01-11T20:22:47.699Z,101581.91
2018-01-11T20:25:13.690Z,101589.38
2018-01-11T20:27:39.909Z,101590.23
2018-01-11T20:30:12.102Z,101590.47
2018-01-11T20:32:39.057Z,101593.73
2018-01-11T20:35:05.118Z,101594.02
2018-01-11T20:37:31.095Z,101596.66
2018-01-11T20:39:57.297Z,101599.90
2018-01-11T20:42:24.061Z,101608.50
2018-01-11T20:44:50.079Z,101607.61
2018-01-11T20:47:16.062Z,101609.84
2018-01-11T20:49:42.173Z,101605.13
2018-01-11T20:52:08.171Z,101606.51
2018-01-11T20:54:34.149Z,101608.34
2018-01-11T20:57:00.135Z,101610.63
2018-01-11T21:01:58.104Z,101612.21
2018-01-11T21:04:24.093Z,101617.88
2018-01-11T21:06:50.109Z,101614.59
2018-01-11T21:09:18.141Z,101615.69
2018-01-11T21:11:44.156Z,101616.19
2018-01-11T21:14:10.170Z,101618.84
2018-01-11T21:16:36.134Z,101614.95
2018-01-11T21:19:02.131Z,101623.44
2018-01-11T21:21:28.160Z,101619.27
2018-01-11T21:23:54.176Z,101622.55
2018-01-11T21:33:54.477Z,101622.72
2018-01-11T21:36:20.462Z,101622.50
2018-01-11T21:38:47.351Z,101631.44
2018-01-11T21:41:13.382Z,101635.08
2018-01-11T21:43:39.439Z,101636.70
2018-01-11T21:46:05.394Z,101636.58
2018-01-11T21:51:04.267Z,101642.19
2018-01-11T21:53:33.271Z,101639.56
2018-01-11T21:55:59.286Z,101646.73
2018-01-11T21:58:25.266Z,101655.09
2018-01-11T22:00:51.271Z,101664.77
2018-01-11T22:03:17.257Z,101662.19
2018-01-11T22:05:43.230Z,101665.74
2018-01-11T22:08:09.234Z,101662.89
2018-01-11T22:10:35.210Z,101668.80
2018-01-11T22:13:01.204Z,101672.98
2018-01-11T22:15:27.219Z,101671.42
2018-01-11T22:17:53.241Z,101673.14
2018-01-11T22:20:19.241Z,101680.21
2018-01-11T22:22:45.225Z,101680.38
2018-01-11T22:25:11.196Z,101686.79
2018-01-11T22:27:37.176Z,101685.70
2018-01-11T22:30:03.192Z,101684.19
2018-01-11T22:32:29.200Z,101687.13
2018-01-11T22:34:57.184Z,101693.81
2018-01-11T22:37:23.157Z,101695.44
2018-01-11T22:39:49.133Z,101697.17
2018-01-11T22:42:15.091Z,101691.70
2018-01-11T22:44:41.061Z,101693.89
2018-01-11T22:47:07.027Z,101700.50
2018-01-11T22:49:33.018Z,101702.98
2018-01-11T22:51:58.986Z,101705.74
2018-01-11T22:54:24.981Z,101702.65
2018-01-11T22:56:50.942Z,101699.70
2018-01-11T22:59:17.050Z,101700.27
2018-01-11T23:01:43.043Z,101697.67
2018-01-11T23:04:09.016Z,101698.13
2018-01-11T23:06:35.046Z,101700.34
2018-01-11T23:09:01.047Z,101714.16
2018-01-11T23:11:27.000Z,101716.16
2018-01-11T23:13:52.973Z,101715.14
2018-01-11T23:16:18.929Z,101716.39
2018-01-11T23:18:44.880Z,101708.77
2018-01-11T23:21:10.971Z,101707.44
2018-01-11T23:23:36.935Z,101713.00
2018-01-11T23:26:02.928Z,101712.60
2018-01-11T23:28:28.872Z,101709.89
2018-01-11T23:30:54.828Z,101710.46
2018-01-11T23:33:20.775Z,101712.39
2018-01-11T23:38:23.790Z,101726.58
2018-01-11T23:40:49.756Z,101730.77
2018-01-11T23:43:15.718Z,101715.97
2018-01-11T23:45:41.719Z,101719.75
2018-01-11T23:48:07.696Z,101733.03
2018-01-11T23:50:33.692Z,101734.20
2018-01-11T23:52:59.663Z,101730.84
2018-01-11T23:55:25.619Z,101729.45
2018-01-11T23:57:51.587Z,101729.67
